Time;durP1;ratioP1;P1;durP2;ratioP2;P2;SDS_P1;SDS_P2;PMS_P1;PMS_P2;Temp;Humidity;BMP_temperature;BMP_pressure;BME280_temperature;BME280_humidity;BME280_pressure;Samples;Min_cycle;Max_cycle;Signal;HPM_P1;HPM_P2
2023/09/28 00:01:16;;;;;;;21.40;10.80;;;;;;;18.06;78.89;99737.31;108077;1297;22376;-51
2023/09/28 00:03:42;;;;;;;16.80;10.70;;;;;;;18.04;78.69;99740.27;108078;1306;22241;-53
2023/09/28 00:06:07;;;;;;;28.20;10.50;;;;;;;18.02;78.74;99736.55;108069;1289;22237;-55
2023/09/28 00:08:32;;;;;;;20.60;10.00;;;;;;;18.00;78.59;99736.34;108076;1306;22468;-56
2023/09/28 00:10:58;;;;;;;22.60;10.20;;;;;;;18.00;78.39;99739.85;108048;1306;22234;-50
2023/09/28 00:13:24;;;;;;;19.50;9.50;;;;;;;18.00;78.76;99733.84;108069;1299;22413;-56
2023/09/28 00:15:49;;;;;;;19.90;9.90;;;;;;;17.99;78.70;99732.73;108075;1285;23159;-55
2023/09/28 00:18:14;;;;;;;20.20;9.90;;;;;;;17.97;78.56;99732.15;108081;1306;22461;-53
2023/09/28 00:20:40;;;;;;;17.70;10.50;;;;;;;17.95;78.44;99729.11;108094;1283;22434;-54
2023/09/28 00:23:05;;;;;;;17.70;9.40;;;;;;;17.93;78.31;99724.48;108083;1283;22225;-56
2023/09/28 00:25:30;;;;;;;17.80;9.40;;;;;;;17.91;78.13;99727.14;108077;1292;22222;-50
2023/09/28 00:27:56;;;;;;;17.50;8.80;;;;;;;17.89;77.87;99723.91;108102;1306;22294;-54
2023/09/28 00:30:22;;;;;;;25.70;9.00;;;;;;;17.88;77.52;99722.20;108072;1295;22975;-53
2023/09/28 00:32:49;;;;;;;15.30;8.90;;;;;;;17.87;77.35;99722.80;108083;1307;23701;-50
2023/09/28 00:35:15;;;;;;;15.00;8.70;;;;;;;17.88;77.30;99721.00;108081;1306;22876;-54
2023/09/28 00:37:41;;;;;;;21.70;9.00;;;;;;;17.87;77.32;99717.66;108088;1288;22429;-52
2023/09/28 00:40:18;;;;;;;16.60;9.70;;;;;;;17.87;77.09;99715.55;108068;1283;22423;-55
2023/09/28 00:42:45;;;;;;;22.80;9.90;;;;;;;17.86;77.14;99710.89;108098;1306;22231;-51
2023/09/28 00:45:11;;;;;;;16.80;9.30;;;;;;;17.83;77.16;99710.48;108068;1283;22400;-57
2023/09/28 00:47:40;;;;;;;17.70;9.70;;;;;;;17.80;76.95;99709.30;108085;1288;22223;-55
2023/09/28 00:50:16;;;;;;;18.40;9.50;;;;;;;17.78;76.90;99706.67;108094;1283;22214;-52
2023/09/28 00:52:43;;;;;;;17.00;8.90;;;;;;;17.76;76.90;99708.04;108086;1288;22209;-50
2023/09/28 00:55:09;;;;;;;24.00;8.60;;;;;;;17.76;76.69;99707.86;108066;1306;22336;-53
2023/09/28 00:57:37;;;;;;;17.00;9.10;;;;;;;17.75;76.73;99706.03;108108;1289;22294;-54
2023/09/28 01:00:16;;;;;;;18.80;9.80;;;;;;;17.74;76.55;99703.59;108102;1306;22282;-53
2023/09/28 01:02:43;;;;;;;19.50;9.00;;;;;;;17.72;76.54;99703.57;108082;1306;22244;-53
2023/09/28 01:05:08;;;;;;;22.80;9.40;;;;;;;17.72;76.47;99700.56;108080;1306;22230;-55
2023/09/28 01:07:33;;;;;;;21.80;10.00;;;;;;;17.71;76.63;99703.64;108080;1289;22226;-53
2023/09/28 01:09:59;;;;;;;17.70;10.00;;;;;;;17.69;76.79;99704.39;108094;1306;22194;-56
2023/09/28 01:12:25;;;;;;;21.20;9.50;;;;;;;17.65;77.19;99705.00;108099;1306;22217;-53
2023/09/28 01:14:56;;;;;;;15.30;9.10;;;;;;;17.61;77.05;99705.81;108122;1289;22381;-56
2023/09/28 01:17:21;;;;;;;15.50;9.70;;;;;;;17.58;76.86;99704.62;108100;1289;22600;-52
2023/09/28 01:19:46;;;;;;;22.50;9.50;;;;;;;17.56;76.89;99708.19;108092;1283;22423;-56
2023/09/28 01:22:14;;;;;;;26.80;9.50;;;;;;;17.53;76.91;99703.82;108072;1283;22330;-52
2023/09/28 01:24:39;;;;;;;16.30;9.20;;;;;;;17.50;76.88;99704.77;108077;1306;23471;-53
2023/09/28 01:27:06;;;;;;;20.00;9.00;;;;;;;17.47;76.95;99700.19;108091;1285;22242;-53
2023/09/28 01:29:31;;;;;;;28.20;9.40;;;;;;;17.45;77.03;99701.09;108115;1306;23162;-52
2023/09/28 01:31:57;;;;;;;18.00;9.40;;;;;;;17.42;76.83;99699.48;108111;1289;23073;-56
2023/09/28 01:34:22;;;;;;;22.50;8.60;;;;;;;17.39;77.16;99699.77;108085;1305;22378;-54
2023/09/28 01:36:47;;;;;;;15.30;8.70;;;;;;;17.33;76.81;99699.83;108090;1289;22928;-53
2023/09/28 01:39:12;;;;;;;13.30;8.10;;;;;;;17.30;76.58;99698.35;108058;1306;24147;-54
2023/09/28 01:41:38;;;;;;;15.50;8.50;;;;;;;17.27;76.73;99697.86;108091;1283;22252;-52
2023/09/28 01:44:03;;;;;;;19.00;8.50;;;;;;;17.25;76.43;99696.02;108096;1283;23224;-53
2023/09/28 01:46:28;;;;;;;12.20;8.00;;;;;;;17.24;76.56;99695.77;108093;1305;22414;-52
2023/09/28 01:48:54;;;;;;;21.00;8.20;;;;;;;17.22;76.20;99698.52;108086;1306;22983;-53
2023/09/28 01:51:19;;;;;;;18.60;7.70;;;;;;;17.22;76.11;99694.32;108063;1306;22204;-50
2023/09/28 01:53:44;;;;;;;14.10;8.20;;;;;;;17.19;76.06;99693.80;108077;1306;23067;-53
2023/09/28 01:56:09;;;;;;;18.50;8.40;;;;;;;17.20;75.83;99691.66;108095;1289;22977;-52
2023/09/28 01:58:35;;;;;;;16.70;7.80;;;;;;;17.19;75.54;99688.35;108069;1289;22206;-52
2023/09/28 02:01:00;;;;;;;18.00;7.80;;;;;;;17.18;75.62;99688.55;108099;1306;22387;-51
2023/09/28 02:03:25;;;;;;;15.20;8.20;;;;;;;17.18;75.58;99687.33;108066;1306;22507;-53
2023/09/28 02:05:52;;;;;;;20.30;7.80;;;;;;;17.17;75.27;99688.64;108082;1306;22226;-55
2023/09/28 02:08:18;;;;;;;25.70;8.30;;;;;;;17.16;75.09;99690.32;108087;1289;22792;-50
2023/09/28 02:10:43;;;;;;;16.30;7.80;;;;;;;17.16;75.06;99687.88;108074;1306;22245;-52
2023/09/28 02:13:09;;;;;;;20.70;7.90;;;;;;;17.15;74.97;99684.71;108074;1282;22195;-53
2023/09/28 02:15:34;;;;;;;18.20;8.30;;;;;;;17.16;75.01;99687.34;108054;1306;23030;-50
2023/09/28 02:17:59;;;;;;;14.30;7.70;;;;;;;17.15;75.26;99686.71;108093;1306;22250;-53
2023/09/28 02:20:25;;;;;;;22.70;7.80;;;;;;;17.13;75.23;99683.69;108046;1306;23129;-53
2023/09/28 02:22:52;;;;;;;15.80;7.60;;;;;;;17.11;75.43;99689.34;108055;1287;22343;-57
2023/09/28 02:25:19;;;;;;;;;;;;;;;17.08;75.25;99687.75;108061;1306;23177;-53
2023/09/28 02:27:45;;;;;;;17.50;7.60;;;;;;;17.05;75.34;99682.88;108062;1286;22253;-56
2023/09/28 02:30:12;;;;;;;13.20;7.90;;;;;;;17.02;75.38;99688.08;108070;1306;22236;-53
2023/09/28 02:32:39;;;;;;;19.00;8.20;;;;;;;16.99;75.15;99684.76;108079;1306;22909;-56
2023/09/28 02:35:07;;;;;;;21.20;7.80;;;;;;;16.96;75.14;99684.77;108067;1286;22256;-56
2023/09/28 02:37:33;;;;;;;17.50;8.00;;;;;;;16.94;74.99;99685.42;108085;1288;22255;-54
2023/09/28 02:39:59;;;;;;;14.00;7.10;;;;;;;16.92;75.09;99685.61;108092;1285;22413;-55
2023/09/28 02:43:59;;;;;;;21.00;8.20;;;;;;;16.92;74.86;99687.91;106991;1304;557711;-52
2023/09/28 02:46:27;;;;;;;20.00;8.40;;;;;;;16.88;74.77;99688.39;107298;1313;22440;-55
2023/09/28 02:48:52;;;;;;;16.10;7.70;;;;;;;16.85;74.75;99687.52;107217;1303;22430;-52
2023/09/28 02:51:18;;;;;;;13.40;8.10;;;;;;;16.83;75.03;99687.70;107359;1294;23041;-50
2023/09/28 02:53:44;;;;;;;14.20;7.90;;;;;;;16.83;74.94;99686.09;107333;1291;22242;-49
2023/09/28 02:56:10;;;;;;;13.70;7.50;;;;;;;16.82;74.90;99686.67;107246;1294;161368;-52
2023/09/28 02:58:35;;;;;;;13.00;7.40;;;;;;;16.81;74.93;99686.23;107542;1291;22205;-50
2023/09/28 03:01:01;;;;;;;19.50;7.40;;;;;;;16.78;74.96;99687.88;107555;1291;22472;-53
2023/09/28 03:03:26;;;;;;;12.40;7.60;;;;;;;16.76;75.09;99683.95;107576;1310;22300;-53
2023/09/28 03:05:54;;;;;;;11.40;6.80;;;;;;;16.73;74.71;99683.80;107539;1288;23037;-49
2023/09/28 03:08:20;;;;;;;15.30;7.90;;;;;;;16.70;74.64;99683.80;107552;1303;22263;-47
2023/09/28 03:10:45;;;;;;;11.90;7.90;;;;;;;16.68;74.59;99677.98;107542;1291;22216;-49
2023/09/28 03:13:11;;;;;;;20.40;8.40;;;;;;;16.65;74.63;99677.17;107541;1288;22236;-50
2023/09/28 03:15:40;;;;;;;14.90;7.30;;;;;;;16.61;74.77;99673.34;107540;1310;22244;-51
2023/09/28 03:18:06;;;;;;;13.50;7.20;;;;;;;16.60;74.53;99675.02;107556;1291;22267;-50
2023/09/28 03:20:31;;;;;;;22.60;7.30;;;;;;;16.59;74.67;99675.13;107544;1310;22282;-50
2023/09/28 03:22:56;;;;;;;12.80;7.50;;;;;;;16.57;74.72;99676.12;107530;1310;22266;-52
2023/09/28 03:25:22;;;;;;;17.30;7.20;;;;;;;16.55;74.45;99678.45;107555;1310;24230;-51
2023/09/28 03:27:52;;;;;;;16.10;7.50;;;;;;;16.53;74.41;99678.02;107546;1287;22242;-48
2023/09/28 03:30:20;;;;;;;17.40;7.10;;;;;;;16.54;74.51;99675.50;107552;1288;22301;-50
2023/09/28 03:32:47;;;;;;;16.50;7.30;;;;;;;16.52;74.40;99673.14;107552;1288;23233;-51
2023/09/28 03:35:13;;;;;;;18.10;7.40;;;;;;;16.51;75.05;99673.23;107572;1291;22492;-54
2023/09/28 03:37:40;;;;;;;18.70;7.50;;;;;;;16.48;74.44;99674.13;107539;1291;22495;-49
2023/09/28 03:40:12;;;;;;;20.70;7.50;;;;;;;16.46;74.38;99672.69;107535;1310;23046;-52
2023/09/28 03:42:43;;;;;;;22.70;7.70;;;;;;;16.44;74.91;99668.39;107553;1291;22256;-51
2023/09/28 03:45:10;;;;;;;17.40;7.40;;;;;;;16.43;74.74;99670.97;107542;1291;22257;-50
2023/09/28 03:47:36;;;;;;;;;;;;;;;16.42;74.49;99668.55;107574;1300;22442;-51
2023/09/28 03:50:01;;;;;;;14.30;6.80;;;;;;;16.40;74.28;99668.35;107563;1291;22216;-53
2023/09/28 03:52:27;;;;;;;15.80;7.50;;;;;;;16.40;74.23;99669.61;107547;1288;22241;-55
2023/09/28 03:54:52;;;;;;;19.40;7.80;;;;;;;16.39;74.15;99672.53;107586;1310;22954;-53
2023/09/28 03:57:17;;;;;;;23.10;7.60;;;;;;;16.38;74.46;99677.70;107577;1290;22471;-53
2023/09/28 03:59:43;;;;;;;15.00;6.80;;;;;;;16.37;74.44;99674.27;107570;1289;22236;-50
2023/09/28 04:02:08;;;;;;;18.30;7.40;;;;;;;16.35;74.26;99671.89;107574;1287;22502;-52
2023/09/28 04:04:33;;;;;;;13.40;7.30;;;;;;;16.35;74.40;99672.29;107584;1291;22975;-54
2023/09/28 04:06:58;;;;;;;21.30;6.90;;;;;;;16.33;74.79;99672.22;107563;1309;22534;-47
2023/09/28 04:09:24;;;;;;;16.50;8.00;;;;;;;16.31;74.74;99669.35;107568;1288;22303;-52
2023/09/28 04:11:49;;;;;;;13.40;7.60;;;;;;;16.29;74.82;99668.11;107605;1287;23423;-56
2023/09/28 04:14:14;;;;;;;17.10;7.60;;;;;;;16.25;74.95;99661.99;107583;1310;23182;-48
2023/09/28 04:16:39;;;;;;;13.80;7.30;;;;;;;16.24;74.64;99663.89;107586;1310;22257;-50
2023/09/28 04:19:05;;;;;;;19.90;7.50;;;;;;;16.22;74.98;99661.01;107543;1286;22211;-52
2023/09/28 04:21:31;;;;;;;17.70;7.60;;;;;;;16.20;74.89;99661.35;107573;1287;22254;-49
2023/09/28 04:23:58;;;;;;;14.20;7.40;;;;;;;16.18;74.88;99660.40;107563;1304;22894;-53
2023/09/28 04:26:23;;;;;;;12.50;7.10;;;;;;;16.16;74.74;99663.23;107585;1291;23167;-50
2023/09/28 04:28:49;;;;;;;18.00;7.70;;;;;;;16.14;74.85;99658.41;107587;1291;22245;-55
2023/09/28 04:31:14;;;;;;;19.90;7.90;;;;;;;16.13;74.89;99656.52;107583;1286;22444;-55
2023/09/28 04:33:39;;;;;;;17.10;7.80;;;;;;;16.13;74.81;99658.86;107614;1291;22225;-46
2023/09/28 04:36:07;;;;;;;15.50;8.00;;;;;;;16.09;74.96;99658.76;107579;1291;22300;-52
2023/09/28 04:38:32;;;;;;;19.10;7.70;;;;;;;16.07;75.34;99656.09;107577;1288;22941;-52
2023/09/28 04:41:00;;;;;;;15.50;8.70;;;;;;;16.04;75.41;99656.64;107584;1291;23323;-46
2023/09/28 04:43:26;;;;;;;18.50;8.80;;;;;;;16.02;75.81;99659.05;107586;1309;22295;-53
2023/09/28 04:45:51;;;;;;;20.40;8.40;;;;;;;15.99;75.54;99657.01;107578;1310;22297;-49
2023/09/28 04:48:16;;;;;;;20.40;8.30;;;;;;;15.98;75.73;99658.88;107575;1291;22427;-51
2023/09/28 04:50:42;;;;;;;15.10;8.50;;;;;;;15.96;76.04;99661.66;107571;1310;22345;-48
2023/09/28 04:53:08;;;;;;;23.10;8.80;;;;;;;15.93;76.15;99661.48;107679;1291;22467;-54
2023/09/28 04:55:33;;;;;;;29.50;9.00;;;;;;;15.94;76.02;99658.06;107663;1287;22304;-50
2023/09/28 04:57:59;;;;;;;27.10;8.80;;;;;;;15.95;76.16;99661.58;107661;1289;22349;-52
2023/09/28 05:00:24;;;;;;;27.90;13.30;;;;;;;15.91;75.97;99663.39;107650;1288;23074;-52
2023/09/28 05:02:49;;;;;;;24.80;10.20;;;;;;;15.90;76.20;99662.40;107658;1309;22907;-54
2023/09/28 05:05:15;;;;;;;16.30;9.30;;;;;;;15.90;76.60;99661.73;107690;1286;22334;-54
2023/09/28 05:07:41;;;;;;;17.60;8.80;;;;;;;15.89;76.24;99660.70;107683;1289;22286;-51
2023/09/28 05:10:08;;;;;;;35.50;8.80;;;;;;;15.88;76.84;99659.73;107673;1287;22364;-52
2023/09/28 05:12:33;;;;;;;22.50;9.20;;;;;;;15.85;76.58;99661.00;107687;1289;22274;-53
2023/09/28 05:14:59;;;;;;;23.70;8.10;;;;;;;15.82;77.17;99665.27;107656;1288;22424;-49
2023/09/28 05:17:24;;;;;;;18.20;9.20;;;;;;;15.80;77.44;99665.20;107650;1309;22238;-52
2023/09/28 05:19:49;;;;;;;22.60;9.10;;;;;;;15.79;77.27;99667.05;107653;1289;23180;-55
2023/09/28 05:22:15;;;;;;;20.20;9.20;;;;;;;15.78;77.82;99666.48;107276;1286;24789;-52
2023/09/28 05:24:41;;;;;;;21.30;9.60;;;;;;;15.77;77.84;99664.41;107620;1309;22356;-49
2023/09/28 05:27:07;;;;;;;24.10;9.70;;;;;;;15.75;77.73;99667.73;107642;1309;22429;-48
2023/09/28 05:29:32;;;;;;;20.10;10.00;;;;;;;15.74;78.02;99664.05;107668;1288;22439;-46
2023/09/28 05:31:57;;;;;;;27.90;9.70;;;;;;;15.73;78.67;99663.90;107648;1291;22280;-46
2023/09/28 05:34:22;;;;;;;20.40;9.10;;;;;;;15.73;78.50;99667.14;107643;1309;22252;-49
2023/09/28 05:36:48;;;;;;;24.40;9.90;;;;;;;15.73;78.94;99668.55;107655;1287;23015;-53
2023/09/28 05:39:13;;;;;;;24.70;10.70;;;;;;;15.73;78.61;99671.52;107667;1286;22514;-48
2023/09/28 05:41:38;;;;;;;21.20;10.20;;;;;;;15.76;78.42;99670.32;107648;1287;22274;-52
2023/09/28 05:44:04;;;;;;;20.40;9.20;;;;;;;15.77;78.48;99669.36;107640;1291;23045;-51
2023/09/28 05:46:30;;;;;;;17.00;9.80;;;;;;;15.76;78.60;99668.37;107693;1309;23129;-49
2023/09/28 05:48:56;;;;;;;20.10;10.60;;;;;;;15.75;78.74;99671.08;107669;1290;22452;-53
2023/09/28 05:51:21;;;;;;;18.90;10.00;;;;;;;15.76;79.02;99676.13;107672;1290;22250;-54
2023/09/28 05:53:46;;;;;;;25.40;10.90;;;;;;;15.77;79.19;99674.64;107666;1290;22233;-51
2023/09/28 05:56:12;;;;;;;22.00;10.70;;;;;;;15.79;79.07;99675.39;107653;1309;22985;-53
2023/09/28 05:58:37;;;;;;;18.20;10.30;;;;;;;15.81;79.06;99676.00;107660;1290;22267;-53
2023/09/28 06:01:13;;;;;;;24.50;11.00;;;;;;;15.80;79.12;99675.89;107680;1289;22218;-52
2023/09/28 06:03:38;;;;;;;25.90;11.10;;;;;;;15.80;79.30;99674.80;107663;1309;23176;-51
2023/09/28 06:06:18;;;;;;;22.80;10.90;;;;;;;15.82;79.56;99670.98;107683;1309;22496;-54
2023/09/28 06:08:48;;;;;;;26.00;10.50;;;;;;;15.81;79.53;99675.05;107681;1291;22241;-55
2023/09/28 06:11:14;;;;;;;28.80;10.20;;;;;;;15.81;79.61;99674.00;107681;1288;23013;-52
2023/09/28 06:13:41;;;;;;;34.40;10.80;;;;;;;15.83;79.43;99676.56;107690;1291;22269;-53
2023/09/28 06:16:08;;;;;;;22.80;10.50;;;;;;;15.86;79.69;99675.41;107673;1309;22252;-50
2023/09/28 06:18:35;;;;;;;15.80;9.90;;;;;;;15.90;79.64;99677.80;107663;1289;23269;-52
2023/09/28 06:21:00;;;;;;;22.20;11.70;;;;;;;15.91;79.94;99678.80;107692;1289;22333;-53
2023/09/28 06:23:26;;;;;;;30.50;10.80;;;;;;;15.95;79.91;99680.27;107676;1287;22445;-52
2023/09/28 06:25:51;;;;;;;23.80;10.90;;;;;;;15.99;80.23;99680.90;107665;1286;22244;-54
2023/09/28 06:28:16;;;;;;;19.90;10.20;;;;;;;16.03;79.99;99682.70;107664;1288;23171;-52
2023/09/28 06:30:42;;;;;;;26.50;11.10;;;;;;;16.07;80.03;99680.98;107706;1309;22363;-53
2023/09/28 06:33:07;;;;;;;28.10;10.70;;;;;;;16.12;79.78;99679.20;107432;1291;22271;-49
2023/09/28 06:35:32;;;;;;;21.60;10.50;;;;;;;16.18;79.77;99679.67;107649;1309;22475;-49
2023/09/28 06:38:00;;;;;;;28.40;11.40;;;;;;;16.24;79.90;99679.59;107672;1291;22456;-53
2023/09/28 06:40:25;;;;;;;31.20;11.00;;;;;;;16.29;79.78;99681.36;107698;1301;22261;-50
2023/09/28 06:42:51;;;;;;;28.00;10.90;;;;;;;16.34;79.61;99680.66;107669;1287;22346;-54
2023/09/28 06:45:16;;;;;;;22.70;10.70;;;;;;;16.38;79.24;99676.08;107682;1300;23129;-49
2023/09/28 06:47:41;;;;;;;23.60;10.80;;;;;;;16.42;79.39;99680.58;107632;1286;23903;-48
2023/09/28 06:50:07;;;;;;;25.20;11.00;;;;;;;16.44;79.20;99679.39;107661;1291;22200;-55
2023/09/28 06:52:33;;;;;;;21.30;10.90;;;;;;;16.46;79.61;99677.63;107690;1291;22326;-53
2023/09/28 06:54:58;;;;;;;28.10;11.40;;;;;;;16.49;79.47;99676.50;107697;1288;22695;-53
2023/09/28 06:57:23;;;;;;;22.60;12.30;;;;;;;16.53;79.60;99676.81;107662;1309;23009;-54
2023/09/28 06:59:48;;;;;;;27.60;11.60;;;;;;;16.57;79.59;99680.05;107678;1309;22265;-52
2023/09/28 07:02:14;;;;;;;31.60;11.90;;;;;;;16.62;79.44;99682.33;107706;1309;22256;-55
2023/09/28 07:04:39;;;;;;;22.60;11.40;;;;;;;16.67;79.30;99684.40;107689;1289;22466;-50
2023/09/28 07:07:05;;;;;;;21.60;11.00;;;;;;;16.74;79.71;99685.13;107696;1309;22240;-53
2023/09/28 07:09:30;;;;;;;21.80;10.60;;;;;;;16.77;80.17;99687.39;107681;1290;22393;-52
2023/09/28 07:11:56;;;;;;;22.60;11.20;;;;;;;16.81;79.97;99683.02;107680;1290;22426;-49
2023/09/28 07:14:21;;;;;;;21.50;10.80;;;;;;;16.86;79.67;99681.93;107704;1288;22231;-49
2023/09/28 07:16:47;;;;;;;19.90;10.40;;;;;;;16.92;79.71;99680.84;107664;1309;22912;-53
2023/09/28 07:19:12;;;;;;;23.70;10.40;;;;;;;16.95;79.43;99680.06;107680;1291;23142;-54
2023/09/28 07:21:37;;;;;;;19.80;10.40;;;;;;;17.00;79.32;99680.96;107657;1285;24178;-52
2023/09/28 07:24:03;;;;;;;25.20;11.10;;;;;;;17.05;79.52;99674.70;107674;1285;22317;-54
2023/09/28 07:26:28;;;;;;;21.60;10.70;;;;;;;17.12;79.39;99677.17;107665;1309;22426;-51
2023/09/28 07:28:54;;;;;;;21.80;11.20;;;;;;;17.18;79.48;99679.58;107684;1288;22255;-54
2023/09/28 07:31:21;;;;;;;16.30;10.70;;;;;;;17.23;79.32;99682.70;107698;1309;23005;-47
2023/09/28 07:33:48;;;;;;;24.10;10.70;;;;;;;17.29;79.59;99679.81;107691;1288;22321;-47
2023/09/28 07:36:14;;;;;;;19.90;10.40;;;;;;;17.35;79.66;99680.19;107684;1309;23180;-52
2023/09/28 07:38:40;;;;;;;24.30;9.90;;;;;;;17.42;79.53;99677.70;107699;1308;23233;-52
2023/09/28 07:41:05;;;;;;;16.10;10.90;;;;;;;17.48;79.50;99676.33;107746;1287;22423;-52
2023/09/28 07:43:30;;;;;;;19.70;10.90;;;;;;;17.56;79.17;99674.31;107692;1291;22255;-56
2023/09/28 07:45:56;;;;;;;25.10;10.30;;;;;;;17.64;79.15;99673.20;107676;1291;22467;-54
2023/09/28 07:48:22;;;;;;;18.90;10.40;;;;;;;17.72;79.04;99673.59;107671;1288;22391;-53
2023/09/28 07:50:47;;;;;;;21.80;11.30;;;;;;;17.80;78.96;99674.73;107695;1287;22453;-50
2023/09/28 07:53:12;;;;;;;23.30;11.00;;;;;;;17.89;78.79;99678.70;107688;1288;22269;-51
2023/09/28 07:55:37;;;;;;;23.00;10.50;;;;;;;17.96;78.92;99678.64;107816;1288;22297;-53
2023/09/28 07:58:03;;;;;;;18.80;10.80;;;;;;;18.05;78.81;99679.88;107812;1284;23243;-52
2023/09/28 08:00:28;;;;;;;21.80;10.10;;;;;;;18.12;78.66;99680.73;107816;1291;22269;-53
2023/09/28 08:02:55;;;;;;;15.70;9.90;;;;;;;18.19;78.50;99679.66;107805;1308;22448;-53
2023/09/28 08:05:21;;;;;;;36.60;10.70;;;;;;;18.26;78.56;99682.30;107810;1308;22449;-51
2023/09/28 08:07:46;;;;;;;28.70;10.80;;;;;;;18.33;78.42;99679.05;107800;1284;22259;-55
2023/09/28 08:10:11;;;;;;;18.40;10.70;;;;;;;18.42;78.20;99682.25;107821;1308;22417;-50
2023/09/28 08:12:37;;;;;;;27.20;10.10;;;;;;;18.49;78.09;99678.98;107800;1284;22284;-56
2023/09/28 08:15:04;;;;;;;28.90;10.90;;;;;;;18.56;77.84;99680.70;107807;1288;22449;-51
2023/09/28 08:17:29;;;;;;;;;;;;;;;18.63;77.89;99676.58;107812;1308;22490;-52
2023/09/28 08:19:58;;;;;;;21.40;10.00;;;;;;;18.69;77.83;99675.92;107718;1288;22239;-53
2023/09/28 08:22:24;;;;;;;20.10;10.20;;;;;;;18.75;77.78;99677.21;107742;1300;23020;-50
2023/09/28 08:24:50;;;;;;;18.90;9.80;;;;;;;18.82;77.81;99679.50;107755;1289;22315;-50
2023/09/28 08:27:16;;;;;;;18.80;10.00;;;;;;;18.89;77.71;99679.83;107776;1308;22247;-50
2023/09/28 08:29:41;;;;;;;19.20;10.30;;;;;;;18.97;77.61;99678.77;107781;1308;22326;-49
2023/09/28 08:32:07;;;;;;;24.20;10.10;;;;;;;19.08;77.47;99680.72;107809;1288;22395;-49
2023/09/28 08:34:33;;;;;;;26.00;9.20;;;;;;;19.20;77.11;99682.55;107725;1289;22700;-51
2023/09/28 08:36:58;;;;;;;28.20;10.30;;;;;;;19.30;76.76;99679.77;107668;1289;22350;-51
2023/09/28 08:39:24;;;;;;;21.40;10.00;;;;;;;19.40;76.80;99681.52;107665;1309;22510;-50
2023/09/28 08:41:55;;;;;;;17.40;9.70;;;;;;;19.54;76.75;99678.19;107747;1307;22348;-52
2023/09/28 08:44:24;;;;;;;25.60;10.40;;;;;;;19.67;76.12;99676.02;107785;1304;22252;-54
2023/09/28 08:46:58;;;;;;;16.30;9.30;;;;;;;19.78;76.20;99674.86;107655;1308;22329;-52
2023/09/28 08:49:25;;;;;;;17.00;8.90;;;;;;;19.90;76.13;99672.80;107809;1288;22444;-50
2023/09/28 08:51:54;;;;;;;17.40;9.10;;;;;;;20.01;75.49;99672.72;107784;1299;22264;-50
2023/09/28 08:54:21;;;;;;;24.80;9.70;;;;;;;20.12;74.64;99671.52;107815;1288;22526;-53
2023/09/28 08:56:48;;;;;;;19.40;9.00;;;;;;;20.25;74.64;99672.17;107077;1288;22569;-46
2023/09/28 08:59:16;;;;;;;19.40;9.40;;;;;;;20.35;74.54;99672.38;107769;1308;22530;-53
2023/09/28 09:01:42;;;;;;;17.70;8.60;;;;;;;20.46;74.51;99667.64;107764;1295;22428;-52
2023/09/28 09:04:09;;;;;;;21.80;9.10;;;;;;;20.67;74.47;99664.66;107677;1304;22435;-54
2023/09/28 09:06:34;;;;;;;17.90;8.10;;;;;;;21.03;74.51;99665.45;107785;1284;22256;-51
2023/09/28 09:09:03;;;;;;;18.10;8.50;;;;;;;21.35;73.67;99662.09;107789;1297;22439;-49
2023/09/28 09:11:31;;;;;;;19.60;7.80;;;;;;;21.57;72.02;99667.75;107651;1291;23131;-55
2023/09/28 09:13:57;;;;;;;24.80;8.70;;;;;;;21.77;72.30;99668.72;107667;1301;23097;-51
2023/09/28 09:16:25;;;;;;;23.30;7.90;;;;;;;22.17;71.07;99669.45;107822;1288;23022;-48
2023/09/28 09:18:50;;;;;;;;;;;;;;;22.44;69.36;99671.09;107801;1308;22464;-47
2023/09/28 09:21:15;;;;;;;18.00;6.80;;;;;;;22.46;68.96;99668.77;107798;1308;22247;-54
2023/09/28 09:23:41;;;;;;;17.30;7.10;;;;;;;22.46;67.77;99668.27;107805;1284;23261;-52
2023/09/28 09:26:18;;;;;;;20.30;7.50;;;;;;;22.44;67.74;99668.98;107292;1285;22580;-54
2023/09/28 09:28:46;;;;;;;17.70;6.80;;;;;;;22.40;65.95;99671.52;107807;1288;22974;-51
2023/09/28 09:31:13;;;;;;;19.70;6.90;;;;;;;22.36;65.97;99674.23;107597;1288;22452;-53
2023/09/28 09:33:38;;;;;;;18.40;7.00;;;;;;;22.33;65.49;99674.89;107816;1308;22351;-52
2023/09/28 09:36:05;;;;;;;18.70;6.00;;;;;;;22.30;65.47;99670.91;107804;1289;22441;-51
2023/09/28 09:38:31;;;;;;;13.20;6.20;;;;;;;22.29;65.42;99669.99;107721;1300;22440;-51
2023/09/28 09:41:01;;;;;;;13.90;5.30;;;;;;;22.29;65.18;99672.98;107714;1298;22455;-52
2023/09/28 09:43:40;;;;;;;12.10;5.90;;;;;;;22.26;64.15;99674.82;107725;1308;22245;-51
2023/09/28 09:46:06;;;;;;;19.00;6.00;;;;;;;22.22;63.84;99675.08;107682;1290;22286;-54
2023/09/28 09:48:38;;;;;;;11.80;5.90;;;;;;;22.19;63.63;99673.55;107746;1308;22221;-55
2023/09/28 09:51:03;;;;;;;17.50;5.90;;;;;;;22.17;63.38;99675.33;107686;1301;22293;-52
2023/09/28 09:53:31;;;;;;;10.20;4.90;;;;;;;22.19;62.47;99673.77;107770;1288;22318;-49
2023/09/28 09:55:57;;;;;;;16.50;5.50;;;;;;;22.22;62.87;99674.63;107709;1289;22218;-54
2023/09/28 09:58:35;;;;;;;17.70;5.30;;;;;;;22.23;62.58;99673.48;107742;1304;22820;-51
2023/09/28 10:01:01;;;;;;;13.20;5.20;;;;;;;22.22;61.37;99673.05;107802;1291;22281;-57
2023/09/28 10:03:29;;;;;;;14.50;5.10;;;;;;;22.23;61.37;99670.09;107679;1289;22296;-51
2023/09/28 10:05:58;;;;;;;12.80;6.10;;;;;;;22.28;60.79;99672.16;107752;1288;22535;-47
2023/09/28 10:08:26;;;;;;;14.90;5.20;;;;;;;22.34;59.23;99668.35;107739;1291;22325;-52
2023/09/28 10:10:52;;;;;;;10.00;5.20;;;;;;;22.41;59.78;99668.36;107766;1288;22275;-49
2023/09/28 10:13:17;;;;;;;12.50;5.40;;;;;;;22.42;59.38;99668.98;107617;1307;22434;-50
2023/09/28 10:15:45;;;;;;;6.90;5.10;;;;;;;22.44;57.79;99672.94;107701;1288;22716;-49
2023/09/28 10:18:12;;;;;;;22.30;5.90;;;;;;;22.47;56.18;99673.03;107743;1301;23022;-51
2023/09/28 10:20:38;;;;;;;15.70;5.10;;;;;;;22.52;55.43;99673.59;107691;1303;22424;-52
2023/09/28 10:23:24;;;;;;;10.40;4.60;;;;;;;22.56;55.70;99671.18;107769;1301;22245;-56
2023/09/28 10:25:57;;;;;;;14.70;4.80;;;;;;;22.58;56.93;99668.63;107713;1291;22254;-51
2023/09/28 10:28:22;;;;;;;11.50;5.00;;;;;;;22.61;55.24;99666.38;107743;1288;22246;-53
2023/09/28 10:31:13;;;;;;;9.60;5.10;;;;;;;22.66;54.91;99661.79;107526;1298;22688;-54
2023/09/28 10:34:16;;;;;;;13.50;5.40;;;;;;;22.70;55.30;99667.29;107692;1308;22665;-54
2023/09/28 10:36:41;;;;;;;11.30;5.20;;;;;;;22.74;56.11;99665.45;107214;1294;23137;-53
2023/09/28 10:39:11;;;;;;;9.40;4.60;;;;;;;22.80;54.49;99665.89;107185;1294;23102;-54
2023/09/28 10:41:37;;;;;;;17.90;5.70;;;;;;;22.89;53.78;99670.94;107197;1313;22320;-53
2023/09/28 10:44:20;;;;;;;11.00;5.10;;;;;;;22.94;54.26;99671.51;107222;1307;22139;-51
2023/09/28 10:46:51;;;;;;;11.60;4.60;;;;;;;22.95;53.02;99669.02;107208;1313;22730;-51
2023/09/28 10:49:26;;;;;;;15.20;4.90;;;;;;;23.01;53.86;99674.38;107187;1305;22445;-50
2023/09/28 10:51:55;;;;;;;9.40;4.40;;;;;;;23.05;53.96;99673.15;107163;1311;22301;-49
2023/09/28 10:54:21;;;;;;;12.30;4.90;;;;;;;23.09;54.03;99668.74;107208;1313;22263;-54
2023/09/28 10:56:50;;;;;;;13.40;4.70;;;;;;;23.15;52.54;99667.92;107201;1307;23010;-54
2023/09/28 10:59:18;;;;;;;10.30;4.50;;;;;;;23.22;53.33;99665.48;107208;1297;22845;-50
2023/09/28 11:01:48;;;;;;;12.30;4.70;;;;;;;23.28;53.42;99658.08;107182;1292;22315;-52
2023/09/28 11:04:15;;;;;;;10.40;4.90;;;;;;;23.36;53.05;99655.78;107183;1294;22480;-51
2023/09/28 11:06:43;;;;;;;12.30;5.10;;;;;;;23.72;53.55;99657.42;107209;1313;22589;-50
2023/09/28 11:09:12;;;;;;;12.60;5.30;;;;;;;25.11;51.49;99654.18;107166;1290;22462;-50
2023/09/28 11:11:38;;;;;;;13.80;5.00;;;;;;;26.76;47.73;99658.98;107285;1294;23064;-50
2023/09/28 11:14:05;;;;;;;12.00;4.80;;;;;;;28.26;44.64;99662.30;107672;1305;22872;-52
2023/09/28 11:16:33;;;;;;;8.70;4.50;;;;;;;29.63;38.96;99664.40;107747;1301;22397;-53